createdAt,value
2023-05-10T00:01:16.112Z,3.20
2023-05-10T00:03:42.937Z,2.60
2023-05-10T00:06:09.656Z,3.03
2023-05-10T00:08:36.368Z,3.27
2023-05-10T00:11:02.984Z,3.47
2023-05-10T00:13:29.615Z,3.07
2023-05-10T00:15:56.518Z,3.50
2023-05-10T00:18:23.373Z,3.40
2023-05-10T00:20:50.210Z,3.70
2023-05-10T00:23:16.812Z,3.43
2023-05-10T00:25:43.597Z,3.33
2023-05-10T00:28:10.164Z,3.03
2023-05-10T00:30:36.810Z,3.23
2023-05-10T00:33:03.981Z,3.23
2023-05-10T00:35:30.709Z,3.00
2023-05-10T00:37:57.270Z,3.77
2023-05-10T00:40:24.049Z,3.43
2023-05-10T00:42:51.839Z,3.63
2023-05-10T00:45:18.666Z,3.63
2023-05-10T00:47:45.346Z,3.97
2023-05-10T00:50:12.149Z,3.63
2023-05-10T00:52:38.932Z,4.07
2023-05-10T00:55:07.062Z,3.70
2023-05-10T00:57:33.918Z,4.00
2023-05-10T01:00:00.669Z,3.87
2023-05-10T01:02:27.335Z,4.23
2023-05-10T01:04:54.078Z,4.27
2023-05-10T01:07:20.836Z,3.87
2023-05-10T01:09:48.169Z,2.70
2023-05-10T01:12:16.271Z,3.37
2023-05-10T01:14:43.497Z,4.43
2023-05-10T01:17:12.074Z,4.10
2023-05-10T01:19:39.297Z,3.50
2023-05-10T01:22:17.760Z,4.40
2023-05-10T01:25:06.131Z,3.73
2023-05-10T01:27:56.048Z,4.00
2023-05-10T01:30:34.553Z,3.57
2023-05-10T01:33:24.300Z,3.67
2023-05-10T01:36:10.114Z,3.30
2023-05-10T01:38:44.146Z,3.73
2023-05-10T01:41:33.432Z,3.90
2023-05-10T01:44:14.473Z,3.43
2023-05-10T01:46:41.937Z,3.73
2023-05-10T01:49:26.593Z,2.93
2023-05-10T01:51:57.952Z,2.97
2023-05-10T01:54:25.726Z,2.77
2023-05-10T01:57:06.552Z,2.60
2023-05-10T01:59:38.054Z,3.20
2023-05-10T02:02:06.979Z,2.70
2023-05-10T02:04:36.385Z,2.90
2023-05-10T02:07:03.427Z,2.90
2023-05-10T02:09:33.094Z,3.40
2023-05-10T02:12:03.595Z,3.00
2023-05-10T02:14:33.365Z,2.53
2023-05-10T02:17:01.009Z,2.50
2023-05-10T02:19:30.048Z,2.60
2023-05-10T02:21:58.336Z,2.53
2023-05-10T02:24:26.233Z,2.80
2023-05-10T02:26:56.744Z,2.70
2023-05-10T02:29:26.230Z,2.30
2023-05-10T02:31:54.319Z,2.57
2023-05-10T02:34:24.340Z,2.53
2023-05-10T02:36:52.121Z,2.40
2023-05-10T02:39:20.728Z,2.53
2023-05-10T02:41:49.858Z,2.47
2023-05-10T02:44:19.599Z,2.70
2023-05-10T02:46:46.812Z,2.87
2023-05-10T02:49:13.922Z,2.83
2023-05-10T02:51:46.149Z,2.67
2023-05-10T02:54:19.613Z,2.53
2023-05-10T02:56:54.808Z,3.20
2023-05-10T02:59:21.482Z,3.37
2023-05-10T03:01:48.344Z,2.80
2023-05-10T03:04:15.113Z,2.87
2023-05-10T03:06:42.413Z,2.57
2023-05-10T03:09:10.527Z,3.00
2023-05-10T03:11:55.671Z,2.90
2023-05-10T03:14:50.453Z,2.90
2023-05-10T03:17:48.180Z,2.40
2023-05-10T03:20:26.959Z,2.93
2023-05-10T03:23:03.900Z,3.27
2023-05-10T03:25:32.161Z,2.90
2023-05-10T03:28:00.872Z,2.97
2023-05-10T03:30:27.968Z,2.77
2023-05-10T03:32:55.291Z,2.80
2023-05-10T03:35:22.029Z,2.87
2023-05-10T03:37:48.621Z,3.03
2023-05-10T03:40:15.633Z,3.33
2023-05-10T03:42:42.536Z,2.90
2023-05-10T03:45:09.958Z,2.70
2023-05-10T03:47:36.593Z,3.23
2023-05-10T03:50:03.540Z,3.20
2023-05-10T03:52:30.167Z,3.73
2023-05-10T03:54:56.797Z,3.40
2023-05-10T03:57:23.453Z,3.43
2023-05-10T03:59:50.099Z,3.23
2023-05-10T04:02:16.737Z,3.53
2023-05-10T04:04:43.334Z,2.40
2023-05-10T04:07:11.415Z,3.13
2023-05-10T04:09:38.025Z,2.37
2023-05-10T04:12:04.861Z,3.43
2023-05-10T04:14:31.476Z,3.23
2023-05-10T04:16:58.152Z,3.40
2023-05-10T04:19:24.871Z,3.10
2023-05-10T04:21:51.482Z,3.07
2023-05-10T04:24:18.155Z,3.20
2023-05-10T04:26:44.864Z,3.60
2023-05-10T04:29:11.455Z,3.53
2023-05-10T04:31:38.240Z,4.20
2023-05-10T04:34:04.961Z,3.30
2023-05-10T04:36:33.448Z,3.90
2023-05-10T04:39:00.169Z,3.63
2023-05-10T04:41:26.980Z,2.83
2023-05-10T04:43:53.677Z,3.63
2023-05-10T04:46:20.389Z,3.37
2023-05-10T04:48:47.095Z,3.03
2023-05-10T04:51:13.758Z,3.47
2023-05-10T04:53:41.789Z,3.40
2023-05-10T04:56:08.609Z,3.30
2023-05-10T04:58:35.302Z,3.87
2023-05-10T05:01:11.755Z,3.30
2023-05-10T05:03:38.498Z,2.90
2023-05-10T05:06:05.492Z,3.40
2023-05-10T05:08:32.253Z,3.37
2023-05-10T05:10:58.905Z,3.70
2023-05-10T05:13:25.553Z,3.10
2023-05-10T05:15:52.367Z,4.40
2023-05-10T05:18:18.994Z,3.50
2023-05-10T05:20:45.617Z,3.60
2023-05-10T05:23:12.250Z,3.00
2023-05-10T05:25:39.052Z,3.60
2023-05-10T05:28:05.659Z,4.33
2023-05-10T05:30:32.622Z,3.20
2023-05-10T05:32:59.284Z,3.93
2023-05-10T05:35:25.989Z,4.27
2023-05-10T05:37:52.555Z,3.87
2023-05-10T05:40:19.209Z,4.13
2023-05-10T05:42:45.879Z,3.60
2023-05-10T05:45:14.323Z,4.13
2023-05-10T05:47:41.302Z,3.40
2023-05-10T05:50:08.272Z,4.60
2023-05-10T05:52:35.027Z,4.53
2023-05-10T05:55:02.518Z,4.33
2023-05-10T05:57:29.167Z,4.60
2023-05-10T05:59:55.795Z,4.90
2023-05-10T06:02:22.539Z,5.13
2023-05-10T06:04:49.234Z,4.93
2023-05-10T06:07:15.843Z,4.87
2023-05-10T06:09:42.494Z,4.10
2023-05-10T06:12:09.081Z,4.47
2023-05-10T06:14:35.644Z,4.37
2023-05-10T06:17:05.071Z,4.80
2023-05-10T06:19:31.983Z,5.77
2023-05-10T06:21:58.576Z,5.00
2023-05-10T06:24:25.192Z,5.47
2023-05-10T06:26:52.017Z,5.60
2023-05-10T06:29:18.678Z,4.87
2023-05-10T06:31:45.398Z,5.77
2023-05-10T06:34:12.757Z,4.67
2023-05-10T06:36:39.404Z,4.80
2023-05-10T06:39:06.725Z,5.20
2023-05-10T06:41:33.284Z,5.87
2023-05-10T06:43:59.854Z,6.00
2023-05-10T06:46:26.923Z,5.37
2023-05-10T06:48:53.721Z,5.40
2023-05-10T06:51:22.143Z,5.00
2023-05-10T06:53:48.768Z,5.00
2023-05-10T06:56:15.429Z,5.27
2023-05-10T06:58:42.053Z,5.10
2023-05-10T07:01:09.341Z,5.70
2023-05-10T07:03:36.348Z,4.60
2023-05-10T07:06:13.322Z,5.47
2023-05-10T07:08:45.240Z,6.23
2023-05-10T07:11:11.905Z,9.70
2023-05-10T07:13:40.205Z,6.73
2023-05-10T07:16:07.499Z,7.97
2023-05-10T07:18:34.690Z,6.40
2023-05-10T07:21:01.350Z,5.33
2023-05-10T07:23:28.146Z,6.57
2023-05-10T07:25:55.070Z,4.77
2023-05-10T07:28:21.751Z,6.40
2023-05-10T07:30:48.398Z,5.70
2023-05-10T07:33:15.634Z,5.50
2023-05-10T07:35:42.820Z,4.67
2023-05-10T07:38:09.571Z,4.70
2023-05-10T07:40:36.292Z,4.60
2023-05-10T07:43:03.408Z,5.50
2023-05-10T07:45:30.206Z,5.80
2023-05-10T07:47:57.016Z,5.43
2023-05-10T07:50:23.903Z,5.23
2023-05-10T07:52:50.527Z,5.27
2023-05-10T07:55:19.219Z,5.83
2023-05-10T07:57:45.887Z,5.57
2023-05-10T08:00:14.572Z,5.47
2023-05-10T08:02:41.956Z,5.90
2023-05-10T08:05:08.947Z,6.77
2023-05-10T08:07:35.555Z,5.80
2023-05-10T08:10:03.427Z,6.17
2023-05-10T08:12:30.141Z,6.47
2023-05-10T08:14:56.765Z,4.63
2023-05-10T08:17:24.701Z,4.83
2023-05-10T08:19:51.508Z,5.70
2023-05-10T08:22:18.103Z,7.17
2023-05-10T08:24:44.734Z,6.47
2023-05-10T08:27:11.337Z,6.23
2023-05-10T08:29:48.864Z,6.87
2023-05-10T08:32:15.980Z,6.93
2023-05-10T08:34:42.593Z,5.63
2023-05-10T08:37:09.362Z,6.40
2023-05-10T08:39:36.680Z,5.37
2023-05-10T08:42:05.979Z,5.67
2023-05-10T08:44:37.661Z,6.13
2023-05-10T08:47:07.668Z,5.40
2023-05-10T08:49:35.075Z,5.93
2023-05-10T08:52:06.626Z,5.23
2023-05-10T08:54:34.429Z,5.13
2023-05-10T08:57:02.013Z,5.73
2023-05-10T08:59:29.504Z,5.63
2023-05-10T09:01:58.802Z,5.60
2023-05-10T09:04:25.943Z,5.70
2023-05-10T09:06:52.936Z,5.43
2023-05-10T09:09:21.438Z,6.07
2023-05-10T09:11:48.569Z,5.17
2023-05-10T09:14:16.305Z,5.63
2023-05-10T09:16:43.669Z,5.87
2023-05-10T09:19:10.635Z,5.30
2023-05-10T09:21:39.314Z,5.40
2023-05-10T09:24:09.501Z,6.30
2023-05-10T09:26:37.474Z,6.27
2023-05-10T09:29:04.420Z,5.87
2023-05-10T09:31:57.431Z,6.63
2023-05-10T09:34:35.742Z,5.40
2023-05-10T09:37:05.618Z,6.17
2023-05-10T09:39:37.225Z,6.00
2023-05-10T09:42:09.044Z,6.07
2023-05-10T09:44:36.650Z,6.10
2023-05-10T09:47:03.979Z,5.33
2023-05-10T09:49:31.145Z,5.30
2023-05-10T09:52:08.083Z,6.23
2023-05-10T09:54:35.458Z,6.30
2023-05-10T09:57:02.290Z,5.30
2023-05-10T09:59:30.233Z,6.20
2023-05-10T10:01:59.163Z,6.60
2023-05-10T10:04:26.557Z,4.83
2023-05-10T10:07:05.982Z,6.67
2023-05-10T10:09:33.840Z,5.97
2023-05-10T10:12:04.864Z,6.10
2023-05-10T10:14:31.688Z,6.40
2023-05-10T10:19:33.911Z,4.67
2023-05-10T10:22:01.518Z,6.30
2023-05-10T10:24:28.149Z,6.00
2023-05-10T10:27:03.278Z,5.27
2023-05-10T10:29:32.739Z,5.90
2023-05-10T10:32:45.906Z,6.67
2023-05-10T10:35:12.629Z,5.63
2023-05-10T10:37:46.941Z,5.93
2023-05-10T10:40:34.897Z,5.33
2023-05-10T10:43:25.366Z,5.33
2023-05-10T10:46:12.646Z,5.97
2023-05-10T10:48:39.346Z,5.83
2023-05-10T10:51:06.181Z,5.40
2023-05-10T10:53:33.521Z,5.97
2023-05-10T10:56:11.196Z,4.73
2023-05-10T10:58:39.455Z,5.30
2023-05-10T11:01:13.298Z,5.87
2023-05-10T11:03:40.028Z,5.80
2023-05-10T11:06:07.155Z,5.37
2023-05-10T11:08:36.960Z,4.83
2023-05-10T11:11:10.516Z,5.20
2023-05-10T11:13:50.967Z,5.20
2023-05-10T11:16:25.935Z,5.33
2023-05-10T11:19:00.024Z,4.63
2023-05-10T11:21:27.206Z,5.13
2023-05-10T11:23:57.595Z,5.07
2023-05-10T11:26:27.116Z,4.83
2023-05-10T11:28:56.457Z,6.10
2023-05-10T11:31:24.036Z,4.83
2023-05-10T11:33:53.158Z,5.83
2023-05-10T11:36:26.930Z,5.33
2023-05-10T11:38:54.487Z,5.57
2023-05-10T11:41:24.452Z,5.50
2023-05-10T11:43:53.094Z,6.17
2023-05-10T11:46:22.830Z,4.57
2023-05-10T11:48:55.658Z,5.60
2023-05-10T11:51:24.134Z,5.90
2023-05-10T11:53:55.969Z,5.47
2023-05-10T11:56:24.494Z,6.00
2023-05-10T11:58:56.798Z,5.13
2023-05-10T12:01:24.850Z,6.00
2023-05-10T12:03:52.602Z,6.03
2023-05-10T12:06:23.107Z,6.03
2023-05-10T12:08:53.659Z,5.37
2023-05-10T12:11:21.945Z,5.53
2023-05-10T12:13:48.889Z,5.80
2023-05-10T12:16:23.572Z,6.77
2023-05-10T12:18:54.648Z,6.57
2023-05-10T12:21:22.213Z,6.07
2023-05-10T12:23:53.834Z,5.47
2023-05-10T12:26:24.320Z,5.80
2023-05-10T12:28:51.117Z,5.53
2023-05-10T12:31:17.837Z,5.97
2023-05-10T12:33:45.712Z,6.40
2023-05-10T12:36:14.058Z,5.03
2023-05-10T12:38:48.618Z,5.87
2023-05-10T12:41:17.775Z,5.77
2023-05-10T12:43:46.438Z,5.60
2023-05-10T12:46:18.084Z,5.90
2023-05-10T12:48:47.297Z,5.70
2023-05-10T12:51:16.706Z,5.47
2023-05-10T12:53:46.163Z,5.63
2023-05-10T12:56:13.984Z,6.50
2023-05-10T12:58:40.743Z,6.53
2023-05-10T13:01:07.544Z,5.90
2023-05-10T13:03:34.290Z,6.10
2023-05-10T13:06:01.025Z,6.10
2023-05-10T13:08:27.808Z,4.33
2023-05-10T13:10:54.468Z,5.57
2023-05-10T13:13:21.179Z,5.57
2023-05-10T13:15:47.767Z,6.10
2023-05-10T13:18:14.561Z,4.67
2023-05-10T13:20:41.320Z,5.67
2023-05-10T13:23:07.895Z,5.03
2023-05-10T13:25:35.419Z,5.83
2023-05-10T13:28:02.486Z,5.43
2023-05-10T13:30:30.217Z,6.03
2023-05-10T13:32:57.028Z,6.27
2023-05-10T13:35:23.824Z,5.40
2023-05-10T13:37:50.589Z,5.77
2023-05-10T13:40:18.263Z,5.53
2023-05-10T13:42:44.985Z,5.83
2023-05-10T13:45:13.393Z,4.50
2023-05-10T13:47:40.172Z,4.63
2023-05-10T13:50:07.864Z,5.73
2023-05-10T13:52:34.579Z,4.60
2023-05-10T13:55:03.530Z,5.23
2023-05-10T13:57:31.304Z,4.63
2023-05-10T13:59:58.364Z,5.43
2023-05-10T14:02:25.690Z,4.50
2023-05-10T14:04:52.567Z,5.27
2023-05-10T14:07:19.505Z,5.50
2023-05-10T14:09:46.180Z,5.13
2023-05-10T14:12:12.871Z,4.60
2023-05-10T14:14:40.078Z,5.20
2023-05-10T14:17:06.827Z,6.87
2023-05-10T14:19:34.949Z,8.17
2023-05-10T14:22:02.406Z,6.40
2023-05-10T14:24:29.079Z,6.33
2023-05-10T14:26:55.707Z,5.40
2023-05-10T14:29:23.122Z,5.43
2023-05-10T14:31:49.794Z,5.20
2023-05-10T14:34:16.642Z,5.00
2023-05-10T14:36:43.248Z,5.60
2023-05-10T14:39:11.182Z,5.00
2023-05-10T14:41:38.187Z,5.27
2023-05-10T14:44:04.816Z,7.33
2023-05-10T14:46:31.473Z,9.30
2023-05-10T14:48:58.141Z,5.53
2023-05-10T14:51:24.707Z,5.90
2023-05-10T14:53:51.317Z,6.03
2023-05-10T14:56:18.161Z,8.33
2023-05-10T14:58:44.824Z,6.80
2023-05-10T15:01:12.120Z,9.20
2023-05-10T15:03:39.246Z,7.27
2023-05-10T15:06:06.746Z,9.13
2023-05-10T15:08:33.371Z,6.30
2023-05-10T15:10:59.995Z,9.00
2023-05-10T15:13:26.617Z,6.87
2023-05-10T15:15:53.299Z,7.50
2023-05-10T15:18:19.954Z,6.33
2023-05-10T15:20:46.597Z,6.80
2023-05-10T15:23:13.542Z,4.97
2023-05-10T15:25:40.524Z,5.67
2023-05-10T15:28:07.164Z,8.53
2023-05-10T15:30:33.761Z,6.17
2023-05-10T15:33:00.479Z,5.23
2023-05-10T15:35:28.089Z,4.80
2023-05-10T15:37:54.707Z,5.47
2023-05-10T15:40:21.320Z,5.33
2023-05-10T15:42:47.908Z,4.63
2023-05-10T15:45:15.246Z,5.63
2023-05-10T15:47:41.945Z,7.20
2023-05-10T15:50:09.705Z,5.50
2023-05-10T15:52:37.168Z,6.33
2023-05-10T15:55:04.260Z,5.07
2023-05-10T15:57:30.966Z,4.87
2023-05-10T15:59:57.957Z,5.90
2023-05-10T16:02:24.738Z,4.90
2023-05-10T16:04:51.808Z,4.67
2023-05-10T16:07:18.503Z,5.17
2023-05-10T16:09:45.178Z,9.63
2023-05-10T16:12:11.908Z,10.83
2023-05-10T16:14:38.486Z,8.07
2023-05-10T16:17:05.285Z,6.03
2023-05-10T16:19:32.210Z,7.20
2023-05-10T16:21:59.043Z,10.33
2023-05-10T16:24:26.369Z,7.77
2023-05-10T16:26:53.130Z,8.30
2023-05-10T16:29:19.786Z,7.40
2023-05-10T16:31:46.462Z,5.83
2023-05-10T16:34:13.081Z,5.17
2023-05-10T16:36:39.740Z,4.57
2023-05-10T16:39:06.383Z,4.77
2023-05-10T16:41:34.508Z,4.57
2023-05-10T16:44:01.834Z,4.17
2023-05-10T16:46:28.545Z,4.90
2023-05-10T16:48:55.234Z,4.47
2023-05-10T16:51:21.877Z,5.20
2023-05-10T16:53:48.529Z,5.37
2023-05-10T16:56:17.718Z,4.57
2023-05-10T16:58:44.513Z,5.60
2023-05-10T17:01:11.192Z,5.43
2023-05-10T17:03:37.993Z,4.50
2023-05-10T17:06:07.180Z,4.47
2023-05-10T17:08:33.937Z,6.07
2023-05-10T17:11:04.707Z,5.47
2023-05-10T17:13:31.950Z,5.77
2023-05-10T17:15:58.687Z,5.67
2023-05-10T17:18:26.844Z,5.97
2023-05-10T17:20:53.553Z,5.33
2023-05-10T17:23:20.340Z,6.00
2023-05-10T17:25:47.070Z,5.73
2023-05-10T17:28:13.702Z,4.77
2023-05-10T17:30:40.343Z,6.23
2023-05-10T17:33:07.082Z,5.63
2023-05-10T17:35:34.195Z,5.30
2023-05-10T17:38:01.028Z,5.17
2023-05-10T17:40:27.746Z,5.87
2023-05-10T17:42:54.392Z,6.13
2023-05-10T17:45:21.133Z,6.80
2023-05-10T17:47:47.810Z,7.10
2023-05-10T17:50:14.411Z,7.57
2023-05-10T17:52:41.318Z,7.40
2023-05-10T17:55:08.717Z,8.07
2023-05-10T17:57:38.094Z,8.20
2023-05-10T18:00:06.581Z,6.97
2023-05-10T18:02:33.305Z,7.13
2023-05-10T18:05:01.423Z,5.97
2023-05-10T18:07:30.109Z,6.03
2023-05-10T18:09:57.838Z,5.30
2023-05-10T18:12:24.497Z,5.80
2023-05-10T18:14:51.787Z,5.87
2023-05-10T18:17:18.424Z,7.87
2023-05-10T18:19:44.984Z,7.47
2023-05-10T18:22:11.710Z,4.70
2023-05-10T18:24:39.882Z,4.73
2023-05-10T18:27:08.723Z,4.97
2023-05-10T18:29:36.278Z,4.70
2023-05-10T18:32:03.013Z,6.30
2023-05-10T18:34:29.683Z,5.17
2023-05-10T18:36:56.517Z,5.17
2023-05-10T18:39:23.617Z,6.00
2023-05-10T18:41:50.312Z,10.10
2023-05-10T18:44:17.015Z,10.10
2023-05-10T18:46:43.729Z,10.43
2023-05-10T18:49:10.456Z,9.93
2023-05-10T18:51:37.064Z,11.00
2023-05-10T18:54:04.265Z,10.50
2023-05-10T18:56:31.003Z,10.43
2023-05-10T18:58:57.731Z,9.10
2023-05-10T19:01:24.415Z,8.60
2023-05-10T19:03:51.091Z,9.10
2023-05-10T19:06:17.774Z,8.90
2023-05-10T19:08:44.439Z,8.17
2023-05-10T19:11:11.098Z,7.87
2023-05-10T19:13:37.676Z,9.03
2023-05-10T19:16:14.322Z,7.30
2023-05-10T19:18:41.238Z,4.93
2023-05-10T19:21:10.448Z,4.17
2023-05-10T19:23:42.014Z,3.33
2023-05-10T19:26:10.711Z,5.27
2023-05-10T19:28:37.563Z,3.93
2023-05-10T19:31:04.476Z,4.63
2023-05-10T19:33:31.680Z,4.37
2023-05-10T19:35:58.335Z,4.10
2023-05-10T19:38:25.528Z,5.40
2023-05-10T19:40:58.050Z,3.67
2023-05-10T19:43:35.275Z,4.47
2023-05-10T19:46:02.877Z,4.57
2023-05-10T19:48:29.860Z,5.47
2023-05-10T19:51:01.046Z,3.87
2023-05-10T19:53:28.287Z,5.13
2023-05-10T19:55:55.579Z,3.90
2023-05-10T19:58:23.462Z,5.07
2023-05-10T20:00:50.575Z,4.37
2023-05-10T20:03:17.337Z,3.33
2023-05-10T20:05:43.947Z,4.87
2023-05-10T20:08:10.717Z,5.37
2023-05-10T20:10:37.437Z,4.00
2023-05-10T20:13:04.164Z,3.73
2023-05-10T20:15:30.996Z,6.10
2023-05-10T20:17:57.714Z,5.43
2023-05-10T20:20:24.515Z,4.93
2023-05-10T20:22:51.257Z,5.03
2023-05-10T20:25:18.745Z,3.73
2023-05-10T20:27:45.583Z,5.67
2023-05-10T20:30:13.006Z,4.60
2023-05-10T20:32:39.774Z,5.23
2023-05-10T20:35:07.242Z,6.07
2023-05-10T20:37:33.911Z,4.27
2023-05-10T20:40:00.709Z,6.87
2023-05-10T20:42:27.399Z,4.30
2023-05-10T20:44:54.045Z,4.67
2023-05-10T20:47:20.904Z,5.23
2023-05-10T20:49:47.571Z,6.97
2023-05-10T20:52:14.340Z,6.53
2023-05-10T20:54:41.063Z,6.63
2023-05-10T20:57:07.895Z,4.03
2023-05-10T20:59:34.577Z,4.07
2023-05-10T21:02:01.334Z,4.53
2023-05-10T21:04:28.216Z,3.90
2023-05-10T21:06:57.003Z,4.07
2023-05-10T21:09:23.654Z,4.33
2023-05-10T21:11:50.855Z,4.37
2023-05-10T21:14:17.548Z,4.30
2023-05-10T21:16:44.279Z,4.17
2023-05-10T21:19:11.634Z,4.40
2023-05-10T21:21:38.383Z,4.47
2023-05-10T21:24:05.350Z,4.87
2023-05-10T21:26:32.009Z,4.23
2023-05-10T21:28:59.352Z,3.60
2023-05-10T21:31:26.159Z,4.43
2023-05-10T21:33:52.867Z,4.43
2023-05-10T21:36:19.593Z,4.40
2023-05-10T21:38:46.789Z,4.00
2023-05-10T21:41:13.430Z,4.10
2023-05-10T21:43:40.162Z,4.40
2023-05-10T21:46:07.407Z,4.50
2023-05-10T21:48:34.074Z,4.10
2023-05-10T21:51:02.159Z,4.17
2023-05-10T21:53:29.036Z,3.93
2023-05-10T21:55:56.371Z,4.43
2023-05-10T21:58:23.430Z,5.17
2023-05-10T22:00:50.109Z,4.33
2023-05-10T22:03:16.949Z,5.00
2023-05-10T22:05:43.664Z,3.90
2023-05-10T22:08:10.314Z,4.17
2023-05-10T22:10:36.969Z,4.03
2023-05-10T22:13:03.677Z,4.30
2023-05-10T22:15:34.153Z,4.30
2023-05-10T22:18:03.217Z,4.60
2023-05-10T22:20:29.946Z,3.33
2023-05-10T22:22:56.574Z,5.30
2023-05-10T22:25:23.276Z,4.20
2023-05-10T22:27:49.928Z,4.70
2023-05-10T22:30:17.194Z,4.27
2023-05-10T22:32:44.237Z,5.60
2023-05-10T22:35:10.880Z,4.43
2023-05-10T22:37:37.666Z,4.20
2023-05-10T22:40:04.745Z,4.67
2023-05-10T22:42:31.377Z,4.63
2023-05-10T22:44:58.839Z,4.07
2023-05-10T22:47:25.710Z,4.27
2023-05-10T22:49:52.431Z,5.03
2023-05-10T22:52:19.185Z,4.83
2023-05-10T22:54:45.978Z,4.23
2023-05-10T22:57:12.815Z,5.17
2023-05-10T22:59:39.468Z,4.03
2023-05-10T23:02:06.816Z,4.87
2023-05-10T23:04:33.726Z,4.47
2023-05-10T23:07:00.420Z,4.40
2023-05-10T23:09:27.088Z,4.50
2023-05-10T23:11:53.785Z,4.83
2023-05-10T23:14:20.537Z,5.20
2023-05-10T23:16:47.221Z,5.07
2023-05-10T23:19:13.839Z,5.33
2023-05-10T23:21:40.922Z,5.30
2023-05-10T23:24:08.715Z,5.07
2023-05-10T23:26:35.409Z,5.63
2023-05-10T23:29:02.455Z,5.23
2023-05-10T23:31:29.212Z,4.53
2023-05-10T23:33:55.958Z,5.00
2023-05-10T23:36:22.636Z,5.63
2023-05-10T23:38:49.304Z,5.00
2023-05-10T23:41:15.914Z,4.90
2023-05-10T23:43:42.639Z,4.67
2023-05-10T23:46:09.286Z,4.70
2023-05-10T23:48:35.943Z,5.07
2023-05-10T23:51:02.657Z,4.20
2023-05-10T23:53:29.410Z,5.37
2023-05-10T23:55:56.280Z,5.20
2023-05-10T23:58:23.011Z,4.33
